Time;durP1;ratioP1;P1;durP2;ratioP2;P2;SDS_P1;SDS_P2;PMS_P1;PMS_P2;Temp;Humidity;BMP_temperature;BMP_pressure;BME280_temperature;BME280_humidity;BME280_pressure;Samples;Min_cycle;Max_cycle;Signal;HPM_P1;HPM_P2
2022/12/05 00:00:31;;;;;;;;;;;11.00;99.90;;;;;;5117725;28;19958;-66
2022/12/05 00:02:57;;;;;;;;;;;11.00;99.90;;;;;;5117803;28;19908;-66
2022/12/05 00:05:23;;;;;;;;;;;11.00;99.90;;;;;;5107889;28;19932;-67
2022/12/05 00:07:48;;;;;;;;;;;10.90;99.90;;;;;;5105987;27;20115;-65
2022/12/05 00:10:14;;;;;;;;;;;10.90;99.90;;;;;;5102648;27;19916;-67
2022/12/05 00:12:42;;;;;;;;;;;10.90;99.90;;;;;;5104741;27;19919;-67
2022/12/05 00:15:11;;;;;;;;;;;10.90;99.90;;;;;;5103779;27;20405;-67
2022/12/05 00:17:39;;;;;;;;;;;10.90;99.90;;;;;;5104774;27;20006;-67
2022/12/05 00:20:06;;;;;;;;;;;10.80;99.90;;;;;;5103416;27;19969;-67
2022/12/05 00:22:34;;;;;;;;;;;10.80;99.90;;;;;;5105851;27;19923;-67
2022/12/05 00:24:59;;;;;;;;;;;10.70;99.90;;;;;;5107182;27;19971;-67
2022/12/05 00:27:25;;;;;;;;;;;10.60;99.90;;;;;;5079977;27;20007;-66
2022/12/05 00:29:51;;;;;;;;;;;10.60;99.90;;;;;;5104409;27;19927;-67
2022/12/05 00:32:16;;;;;;;;;;;10.50;99.90;;;;;;5103263;27;20005;-66
2022/12/05 00:34:42;;;;;;;;;;;10.50;99.90;;;;;;5104361;27;19964;-66
2022/12/05 00:37:08;;;;;;;;;;;10.50;99.90;;;;;;5104199;27;19919;-65
2022/12/05 00:39:33;;;;;;;;;;;10.50;99.90;;;;;;5105104;27;21103;-67
2022/12/05 00:41:59;;;;;;;;;;;10.40;99.90;;;;;;5106001;27;19958;-66
2022/12/05 00:44:25;;;;;;;;;;;10.40;99.90;;;;;;5108478;27;19927;-67
2022/12/05 00:46:50;;;;;;;;;;;10.40;99.90;;;;;;5114424;28;20325;-66
2022/12/05 00:49:16;;;;;;;;;;;10.30;99.90;;;;;;5119230;27;19923;-66
2022/12/05 00:51:42;;;;;;;;;;;10.30;99.90;;;;;;5113662;28;19922;-67
2022/12/05 00:54:09;;;;;;;;;;;10.30;99.90;;;;;;5112995;27;19957;-66
2022/12/05 00:56:35;;;;;;;;;;;10.30;99.90;;;;;;5114878;28;20404;-67
2022/12/05 00:59:01;;;;;;;;;;;10.30;99.90;;;;;;5112294;28;19919;-67
2022/12/05 01:01:29;;;;;;;;;;;10.30;99.90;;;;;;5112312;28;20310;-66
2022/12/05 01:03:56;;;;;;;;;;;10.40;99.90;;;;;;5110272;28;20248;-67
2022/12/05 01:06:22;;;;;;;;;;;10.50;99.90;;;;;;5114474;28;19971;-67
2022/12/05 01:08:48;;;;;;;;;;;10.60;99.90;;;;;;5112614;28;19912;-67
2022/12/05 01:11:15;;;;;;;;;;;10.70;99.90;;;;;;5097284;28;20282;-67
2022/12/05 01:13:41;;;;;;;;;;;10.80;99.90;;;;;;5119528;27;19939;-67
2022/12/05 01:16:12;;;;;;;;;;;10.90;99.90;;;;;;5107983;28;19911;-67
2022/12/05 01:18:38;;;;;;;;;;;10.90;99.90;;;;;;5112675;28;19915;-67
2022/12/05 01:21:04;;;;;;;;;;;10.90;99.90;;;;;;5115494;28;19998;-67
2022/12/05 01:23:30;;;;;;;;;;;10.90;99.90;;;;;;5115401;28;19919;-68
2022/12/05 01:25:56;;;;;;;;;;;11.00;99.90;;;;;;5114995;28;19911;-67
2022/12/05 01:28:21;;;;;;;;;;;11.10;99.90;;;;;;5087986;28;19937;-67
2022/12/05 01:30:48;;;;;;;;;;;11.00;99.90;;;;;;5113978;28;20017;-67
2022/12/05 01:33:14;;;;;;;;;;;11.00;99.90;;;;;;5115285;28;19911;-67
2022/12/05 01:35:40;;;;;;;;;;;11.10;99.90;;;;;;5104323;27;19918;-65
2022/12/05 01:38:06;;;;;;;;;;;11.00;99.90;;;;;;5108395;28;19912;-68
2022/12/05 01:40:34;;;;;;;;;;;11.00;99.90;;;;;;5106910;28;19935;-67
2022/12/05 01:43:00;;;;;;;;;;;11.00;99.90;;;;;;5106157;28;19923;-67
2022/12/05 01:45:32;;;;;;;;;;;11.10;99.90;;;;;;5113277;28;20014;-67
2022/12/05 01:48:01;;;;;;;;;;;11.10;99.90;;;;;;5114112;28;19908;-67
2022/12/05 01:50:26;;;;;;;;;;;11.10;99.90;;;;;;5114287;28;19967;-68
2022/12/05 01:52:52;;;;;;;;;;;11.10;99.90;;;;;;5112864;28;19912;-67
2022/12/05 01:55:18;;;;;;;;;;;11.00;99.90;;;;;;5115304;28;19999;-65
2022/12/05 01:57:45;;;;;;;;;;;11.10;99.90;;;;;;5115872;28;19911;-67
2022/12/05 02:00:12;;;;;;;;;;;11.10;99.90;;;;;;5116332;28;19958;-67
2022/12/05 02:02:40;;;;;;;;;;;11.10;99.90;;;;;;5120695;28;19908;-67
2022/12/05 02:05:07;;;;;;;;;;;11.10;99.90;;;;;;5115145;27;19916;-66
2022/12/05 02:07:34;;;;;;;;;;;11.20;99.90;;;;;;5122707;28;20002;-69
2022/12/05 02:09:59;;;;;;;;;;;11.20;99.90;;;;;;5120422;27;19923;-67
2022/12/05 02:12:25;;;;;;;;;;;11.20;99.90;;;;;;5109420;27;20164;-67
2022/12/05 02:14:57;;;;;;;;;;;11.30;99.90;;;;;;5106722;27;19919;-66
2022/12/05 02:17:27;;;;;;;;;;;11.30;99.90;;;;;;5121925;27;20085;-68
2022/12/05 02:19:59;;;;;;;;;;;11.30;99.90;;;;;;5106108;27;19912;-65
2022/12/05 02:22:43;;;;;;;;;;;11.30;99.90;;;;;;5109177;27;20426;-66
2022/12/05 02:25:21;;;;;;;;;;;11.40;99.90;;;;;;5107856;27;19920;-67
2022/12/05 02:27:48;;;;;;;;;;;11.30;99.90;;;;;;5110116;27;19916;-67
2022/12/05 02:30:16;;;;;;;;;;;11.30;99.90;;;;;;5109323;27;19959;-67
2022/12/05 02:32:47;;;;;;;;;;;11.20;99.90;;;;;;5111777;27;19973;-67
2022/12/05 02:35:13;;;;;;;;;;;11.40;99.90;;;;;;5107679;27;19966;-66
2022/12/05 02:37:43;;;;;;;;;;;11.40;99.90;;;;;;5110187;27;20200;-66
2022/12/05 02:40:12;;;;;;;;;;;11.40;99.90;;;;;;5107882;27;19941;-67
2022/12/05 02:42:47;;;;;;;;;;;11.40;99.90;;;;;;5107377;27;19944;-67
2022/12/05 02:45:14;;;;;;;;;;;11.50;99.90;;;;;;5108776;27;19912;-67
2022/12/05 02:47:44;;;;;;;;;;;11.50;99.90;;;;;;5107399;27;19916;-67
2022/12/05 02:50:11;;;;;;;;;;;11.50;99.90;;;;;;5111784;27;19916;-66
2022/12/05 02:52:37;;;;;;;;;;;11.50;99.90;;;;;;5115445;27;20011;-66
2022/12/05 02:55:04;;;;;;;;;;;11.50;99.90;;;;;;5107351;27;19923;-67
2022/12/05 02:57:30;;;;;;;;;;;11.60;99.90;;;;;;5112169;27;20443;-66
2022/12/05 02:59:56;;;;;;;;;;;11.50;99.90;;;;;;5120521;27;19962;-67
2022/12/05 03:02:40;;;;;;;;;;;11.50;99.90;;;;;;5106977;27;19943;-64
2022/12/05 03:05:24;;;;;;;;;;;11.50;99.90;;;;;;5107381;27;19926;-67
2022/12/05 03:07:52;;;;;;;;;;;11.50;99.90;;;;;;5108611;27;19912;-66
2022/12/05 03:10:20;;;;;;;;;;;11.50;99.90;;;;;;5115621;27;19915;-66
2022/12/05 03:12:52;;;;;;;;;;;11.50;99.90;;;;;;5118920;28;19964;-67
2022/12/05 03:15:21;;;;;;;;;;;11.40;99.90;;;;;;5116523;27;20107;-67
2022/12/05 03:17:52;;;;;;;;;;;11.40;99.90;;;;;;5113685;27;19919;-66
2022/12/05 03:20:24;;;;;;;;;;;11.40;99.90;;;;;;5115989;28;19919;-66
2022/12/05 03:22:54;;;;;;;;;;;11.40;99.90;;;;;;5116161;28;19912;-67
2022/12/05 03:25:23;;;;;;;;;;;11.50;99.90;;;;;;5115903;28;19912;-67
2022/12/05 03:27:51;;;;;;;;;;;11.50;99.90;;;;;;5117460;28;19983;-66
2022/12/05 03:30:18;;;;;;;;;;;11.60;99.90;;;;;;5116887;27;19945;-66
2022/12/05 03:32:53;;;;;;;;;;;11.70;99.90;;;;;;5117219;28;20367;-67
2022/12/05 03:35:18;;;;;;;;;;;11.70;99.90;;;;;;5115710;28;19958;-66
2022/12/05 03:37:49;;;;;;;;;;;11.60;99.90;;;;;;5116062;27;19915;-66
2022/12/05 03:40:17;;;;;;;;;;;11.70;99.90;;;;;;5117658;27;19916;-67
2022/12/05 03:42:48;;;;;;;;;;;11.80;99.90;;;;;;5117319;28;20286;-67
2022/12/05 03:45:19;;;;;;;;;;;11.80;99.90;;;;;;5115029;28;19912;-67
2022/12/05 03:48:05;;;;;;;;;;;11.90;99.90;;;;;;5112781;28;19961;-67
2022/12/05 03:50:30;;;;;;;;;;;11.90;99.90;;;;;;5098266;28;19924;-67
2022/12/05 03:53:02;;;;;;;;;;;11.90;99.90;;;;;;5113814;28;19912;-72
2022/12/05 03:55:29;;;;;;;;;;;12.00;99.90;;;;;;5114436;28;19919;-67
2022/12/05 03:58:05;;;;;;;;;;;12.00;99.90;;;;;;5116702;28;19930;-67
2022/12/05 04:00:34;;;;;;;;;;;12.00;99.90;;;;;;5117014;28;19999;-67
2022/12/05 04:03:02;;;;;;;;;;;12.00;99.90;;;;;;5116888;28;19915;-67
2022/12/05 04:05:34;;;;;;;;;;;12.10;99.90;;;;;;5114569;27;19920;-67
2022/12/05 04:08:05;;;;;;;;;;;12.10;99.90;;;;;;5116756;28;19908;-67
2022/12/05 04:10:47;;;;;;;;;;;12.20;99.90;;;;;;5109681;28;19922;-67
2022/12/05 04:13:28;;;;;;;;;;;12.30;99.90;;;;;;5115238;27;19911;-67
2022/12/05 04:18:55;;;;;;;;;;;12.30;99.90;;;;;;5106234;28;19911;-67
2022/12/05 04:21:37;;;;;;;;;;;12.20;99.90;;;;;;5112936;28;19912;-68
2022/12/05 04:27:26;;;;;;;;;;;12.20;99.90;;;;;;5070289;28;19912;-68
2022/12/05 04:29:55;;;;;;;;;;;12.40;99.90;;;;;;5109472;28;20029;-68
2022/12/05 04:32:23;;;;;;;;;;;12.40;99.90;;;;;;5116688;28;20150;-67
2022/12/05 04:34:54;;;;;;;;;;;12.40;99.90;;;;;;5109961;27;19922;-67
2022/12/05 04:37:21;;;;;;;;;;;12.40;99.90;;;;;;5130501;27;19958;-66
2022/12/05 04:39:55;;;;;;;;;;;12.40;99.90;;;;;;5104221;28;19912;-67
2022/12/05 04:42:24;;;;;;;;;;;12.50;99.90;;;;;;5108775;28;19951;-68
2022/12/05 04:44:54;;;;;;;;;;;12.50;99.90;;;;;;5113361;28;20014;-67
2022/12/05 04:47:23;;;;;;;;;;;12.50;99.90;;;;;;5112578;28;19956;-67
2022/12/05 04:49:49;;;;;;;;;;;12.40;99.90;;;;;;5111857;28;19970;-67
2022/12/05 04:52:15;;;;;;;;;;;12.40;99.90;;;;;;5114409;28;19912;-66
2022/12/05 04:54:44;;;;;;;;;;;12.30;99.90;;;;;;5096421;28;19919;-67
2022/12/05 04:57:28;;;;;;;;;;;12.40;99.90;;;;;;5115684;28;19933;-67
2022/12/05 04:59:54;;;;;;;;;;;12.30;99.90;;;;;;5096068;28;19919;-67
2022/12/05 05:02:23;;;;;;;;;;;12.10;99.90;;;;;;5104926;27;20323;-67
2022/12/05 05:04:51;;;;;;;;;;;12.10;99.90;;;;;;5094741;27;20387;-67
2022/12/05 05:07:17;;;;;;;;;;;12.00;99.90;;;;;;5113725;28;20383;-66
2022/12/05 05:09:43;;;;;;;;;;;11.90;99.90;;;;;;5113540;28;19960;-67
2022/12/05 05:12:09;;;;;;;;;;;11.80;99.90;;;;;;5112121;27;19923;-67
2022/12/05 05:14:34;;;;;;;;;;;11.80;99.90;;;;;;5114466;28;19908;-67
2022/12/05 05:17:00;;;;;;;;;;;11.70;99.90;;;;;;5111786;28;19912;-67
2022/12/05 05:19:26;;;;;;;;;;;11.70;99.90;;;;;;5113766;28;19930;-67
2022/12/05 05:21:52;;;;;;;;;;;11.60;99.90;;;;;;5097186;28;19912;-66
2022/12/05 05:24:18;;;;;;;;;;;11.60;99.90;;;;;;5115749;28;19996;-68
2022/12/05 05:26:44;;;;;;;;;;;11.60;99.90;;;;;;5131477;27;19908;-69
2022/12/05 05:29:10;;;;;;;;;;;11.60;99.90;;;;;;5115642;28;19919;-68
2022/12/05 05:31:36;;;;;;;;;;;11.60;99.90;;;;;;5110430;28;20022;-68
2022/12/05 05:34:01;;;;;;;;;;;11.60;99.90;;;;;;5102440;28;19916;-67
2022/12/05 05:36:27;;;;;;;;;;;11.50;99.90;;;;;;5102327;28;19927;-68
2022/12/05 05:38:54;;;;;;;;;;;11.50;99.90;;;;;;5095188;28;19915;-68
2022/12/05 05:41:24;;;;;;;;;;;11.50;99.90;;;;;;5095153;28;20002;-67
2022/12/05 05:43:51;;;;;;;;;;;11.50;99.90;;;;;;5095187;28;19908;-68
2022/12/05 05:46:17;;;;;;;;;;;11.50;99.90;;;;;;5094785;28;19908;-68
2022/12/05 05:48:43;;;;;;;;;;;11.40;99.90;;;;;;5095566;28;19962;-67
2022/12/05 05:51:12;;;;;;;;;;;11.40;99.90;;;;;;5110229;28;19947;-68
2022/12/05 05:53:38;;;;;;;;;;;11.40;99.90;;;;;;5110270;28;19912;-68
2022/12/05 05:56:05;;;;;;;;;;;11.40;99.90;;;;;;5112833;28;19914;-67
2022/12/05 05:58:31;;;;;;;;;;;11.50;99.90;;;;;;5107678;28;19912;-68
2022/12/05 06:01:04;;;;;;;;;;;11.50;99.90;;;;;;5112415;28;20101;-67
2022/12/05 06:03:30;;;;;;;;;;;11.50;99.90;;;;;;5112903;28;19996;-68
2022/12/05 06:05:59;;;;;;;;;;;11.40;99.90;;;;;;5109201;28;20003;-67
2022/12/05 06:08:25;;;;;;;;;;;11.30;99.90;;;;;;5104953;28;19920;-68
2022/12/05 06:10:50;;;;;;;;;;;11.20;99.90;;;;;;5112333;28;19923;-67
2022/12/05 06:13:16;;;;;;;;;;;11.10;99.90;;;;;;5112799;28;19912;-67
2022/12/05 06:15:42;;;;;;;;;;;11.00;99.90;;;;;;5116143;28;20010;-67
2022/12/05 06:18:07;;;;;;;;;;;11.00;99.90;;;;;;5111353;28;20351;-69
2022/12/05 06:20:33;;;;;;;;;;;11.00;99.90;;;;;;5113570;28;19914;-68
2022/12/05 06:22:59;;;;;;;;;;;10.90;99.90;;;;;;5114880;28;19957;-68
2022/12/05 06:25:24;;;;;;;;;;;10.90;99.90;;;;;;5103418;28;19908;-68
2022/12/05 06:27:50;;;;;;;;;;;10.90;99.90;;;;;;5090392;28;20312;-70
2022/12/05 06:30:16;;;;;;;;;;;10.80;99.90;;;;;;5103682;28;19916;-67
2022/12/05 06:32:41;;;;;;;;;;;10.90;99.90;;;;;;5120186;28;19915;-69
2022/12/05 06:35:14;;;;;;;;;;;10.90;99.90;;;;;;5113001;28;19914;-67
2022/12/05 06:37:40;;;;;;;;;;;11.00;99.90;;;;;;5091754;28;20389;-70
2022/12/05 06:40:06;;;;;;;;;;;11.10;99.90;;;;;;5110196;28;19912;-68
2022/12/05 06:42:32;;;;;;;;;;;11.10;99.90;;;;;;5112466;28;20288;-68
2022/12/05 06:44:57;;;;;;;;;;;11.20;99.90;;;;;;5103848;28;20048;-68
2022/12/05 06:47:23;;;;;;;;;;;11.30;99.90;;;;;;5110182;28;20091;-68
2022/12/05 06:49:49;;;;;;;;;;;11.30;99.90;;;;;;5116037;28;19931;-68
2022/12/05 06:52:14;;;;;;;;;;;11.40;99.90;;;;;;5106269;27;19939;-69
2022/12/05 06:54:40;;;;;;;;;;;11.50;99.90;;;;;;5111499;28;19955;-68
2022/12/05 06:57:06;;;;;;;;;;;11.60;99.90;;;;;;5111560;28;19931;-68
2022/12/05 06:59:32;;;;;;;;;;;11.70;99.90;;;;;;5110596;27;19912;-68
2022/12/05 07:01:59;;;;;;;;;;;11.70;99.90;;;;;;5109281;28;19919;-69
2022/12/05 07:04:25;;;;;;;;;;;11.80;99.90;;;;;;5115040;28;20379;-68
2022/12/05 07:06:51;;;;;;;;;;;11.90;99.90;;;;;;5096037;28;19912;-68
2022/12/05 07:12:08;;;;;;;;;;;12.00;99.90;;;;;;5117405;28;19962;-68
2022/12/05 07:14:34;;;;;;;;;;;12.00;99.90;;;;;;5109733;27;19947;-68
2022/12/05 07:17:00;;;;;;;;;;;12.10;99.90;;;;;;5114306;28;20360;-68
2022/12/05 07:19:25;;;;;;;;;;;12.10;99.90;;;;;;5110417;28;19949;-68
2022/12/05 07:21:51;;;;;;;;;;;12.10;99.90;;;;;;5116956;28;19974;-68
2022/12/05 07:24:17;;;;;;;;;;;12.10;99.90;;;;;;5116652;28;19908;-65
2022/12/05 07:26:43;;;;;;;;;;;12.10;99.90;;;;;;5115893;28;19912;-66
2022/12/05 07:29:09;;;;;;;;;;;12.10;99.90;;;;;;5113563;28;19928;-66
2022/12/05 07:31:35;;;;;;;;;;;12.20;99.90;;;;;;5109184;28;19916;-64
2022/12/05 07:34:01;;;;;;;;;;;12.20;99.90;;;;;;5112103;28;19912;-65
2022/12/05 07:36:27;;;;;;;;;;;12.20;99.90;;;;;;5113662;28;19931;-65
2022/12/05 07:38:55;;;;;;;;;;;12.30;99.90;;;;;;5109368;27;20362;-65
2022/12/05 07:41:22;;;;;;;;;;;12.40;99.90;;;;;;5114269;27;19911;-63
2022/12/05 07:43:52;;;;;;;;;;;12.50;99.90;;;;;;5114554;28;19911;-64
2022/12/05 07:46:17;;;;;;;;;;;12.50;99.90;;;;;;5111484;27;19919;-64
2022/12/05 07:48:43;;;;;;;;;;;12.60;99.90;;;;;;5113085;28;19911;-64
2022/12/05 07:51:09;;;;;;;;;;;12.70;99.90;;;;;;5115904;28;19927;-64
2022/12/05 07:53:36;;;;;;;;;;;12.80;99.90;;;;;;5116275;28;19908;-67
2022/12/05 07:56:03;;;;;;;;;;;12.80;99.90;;;;;;5116475;28;19961;-66
2022/12/05 07:58:28;;;;;;;;;;;12.90;99.90;;;;;;5116710;28;19907;-70
2022/12/05 08:00:55;;;;;;;;;;;12.90;99.90;;;;;;5115891;28;19915;-71
2022/12/05 08:03:20;;;;;;;;;;;13.00;99.90;;;;;;5116292;28;19915;-69
2022/12/05 08:05:46;;;;;;;;;;;13.10;99.90;;;;;;5116725;27;20291;-69
2022/12/05 08:08:12;;;;;;;;;;;13.10;99.90;;;;;;5113202;27;19967;-68
2022/12/05 08:10:38;;;;;;;;;;;13.10;99.90;;;;;;5103727;27;19915;-68
2022/12/05 08:13:03;;;;;;;;;;;13.10;99.90;;;;;;5116130;28;19916;-68
2022/12/05 08:15:29;;;;;;;;;;;13.20;99.90;;;;;;5115875;28;19961;-68
2022/12/05 08:17:57;;;;;;;;;;;13.20;99.90;;;;;;5108790;27;19947;-68
2022/12/05 08:20:22;;;;;;;;;;;13.20;99.90;;;;;;5113741;28;19911;-68
2022/12/05 08:22:50;;;;;;;;;;;13.30;99.90;;;;;;5113922;28;19911;-68
2022/12/05 08:25:16;;;;;;;;;;;13.30;99.90;;;;;;5116037;28;19912;-67
2022/12/05 08:27:41;;;;;;;;;;;13.40;99.90;;;;;;5113633;28;19936;-68
2022/12/05 08:30:07;;;;;;;;;;;13.50;99.90;;;;;;5110090;28;19922;-68
2022/12/05 08:32:33;;;;;;;;;;;13.40;99.90;;;;;;5110985;27;19912;-67
2022/12/05 08:34:58;;;;;;;;;;;13.50;99.90;;;;;;5111233;27;20295;-68
2022/12/05 08:37:24;;;;;;;;;;;13.50;99.90;;;;;;5114941;28;20127;-69
2022/12/05 08:39:50;;;;;;;;;;;13.60;99.90;;;;;;5103793;28;19915;-68
2022/12/05 08:42:16;;;;;;;;;;;13.60;99.90;;;;;;5115521;28;19908;-69
2022/12/05 08:44:41;;;;;;;;;;;13.80;99.90;;;;;;5111765;28;20000;-69
2022/12/05 08:47:07;;;;;;;;;;;13.80;99.90;;;;;;5108035;27;20016;-69
2022/12/05 08:49:32;;;;;;;;;;;13.90;99.90;;;;;;5112082;28;20297;-69
2022/12/05 08:51:58;;;;;;;;;;;13.90;99.90;;;;;;5115352;28;19957;-69
2022/12/05 08:54:24;;;;;;;;;;;14.00;99.90;;;;;;5114850;28;19912;-68
2022/12/05 08:56:50;;;;;;;;;;;14.00;99.90;;;;;;5111999;28;19938;-68
2022/12/05 08:59:16;;;;;;;;;;;14.10;99.90;;;;;;5107244;27;19968;-66
2022/12/05 09:01:41;;;;;;;;;;;14.00;99.90;;;;;;5088251;28;19911;-69
2022/12/05 09:04:07;;;;;;;;;;;14.00;99.90;;;;;;5106213;28;19939;-69
2022/12/05 09:06:33;;;;;;;;;;;14.00;99.90;;;;;;5110293;28;19915;-69
2022/12/05 09:09:00;;;;;;;;;;;14.00;99.90;;;;;;5112127;28;19970;-66
2022/12/05 09:11:27;;;;;;;;;;;14.00;99.90;;;;;;5113805;28;19912;-61
2022/12/05 09:13:53;;;;;;;;;;;14.00;99.90;;;;;;5114635;28;19908;-69
2022/12/05 09:16:20;;;;;;;;;;;14.00;99.90;;;;;;5105774;28;19916;-69
2022/12/05 09:18:47;;;;;;;;;;;14.20;99.90;;;;;;5108391;28;20047;-69
2022/12/05 09:21:16;;;;;;;;;;;14.30;99.90;;;;;;5114548;28;19916;-67
2022/12/05 09:23:42;;;;;;;;;;;14.30;99.90;;;;;;5115082;28;19907;-69
2022/12/05 09:26:10;;;;;;;;;;;14.40;99.90;;;;;;5106406;28;20073;-69
2022/12/05 09:28:36;;;;;;;;;;;14.50;99.90;;;;;;5112361;28;19912;-69
2022/12/05 09:31:03;;;;;;;;;;;14.40;99.90;;;;;;5114639;28;20007;-69
2022/12/05 09:33:29;;;;;;;;;;;14.50;99.90;;;;;;5110403;28;19915;-69
2022/12/05 09:35:55;;;;;;;;;;;14.50;99.90;;;;;;5092711;28;19923;-69
2022/12/05 09:38:21;;;;;;;;;;;14.50;99.90;;;;;;5112313;28;19908;-69
2022/12/05 09:40:53;;;;;;;;;;;14.50;99.90;;;;;;5114510;28;19907;-68
2022/12/05 09:43:18;;;;;;;;;;;14.50;99.90;;;;;;5115080;28;19990;-68
2022/12/05 09:45:50;;;;;;;;;;;14.50;99.90;;;;;;5114471;28;20367;-69
2022/12/05 09:48:19;;;;;;;;;;;14.50;99.90;;;;;;5096432;28;19912;-69
2022/12/05 09:51:03;;;;;;;;;;;14.40;99.90;;;;;;5108014;28;20019;-71
2022/12/05 09:53:32;;;;;;;;;;;14.40;99.90;;;;;;5112844;28;20397;-68
2022/12/05 09:55:58;;;;;;;;;;;14.40;99.90;;;;;;5113872;28;20002;-66
2022/12/05 09:58:26;;;;;;;;;;;14.40;99.90;;;;;;5116745;27;19954;-66
2022/12/05 10:00:56;;;;;;;;;;;14.30;99.90;;;;;;5110299;28;19918;-66
2022/12/05 10:03:21;;;;;;;;;;;14.30;99.90;;;;;;5110090;28;19916;-68
2022/12/05 10:05:56;;;;;;;;;;;14.20;99.90;;;;;;5103481;28;19926;-68
2022/12/05 10:08:29;;;;;;;;;;;14.10;99.90;;;;;;5113620;28;19915;-70
2022/12/05 10:11:13;;;;;;;;;;;14.00;99.90;;;;;;5113958;28;20366;-68
2022/12/05 10:13:41;;;;;;;;;;;13.90;99.90;;;;;;5108482;28;19915;-68
2022/12/05 10:16:12;;;;;;;;;;;13.90;99.90;;;;;;5111977;28;20186;-68
2022/12/05 10:18:41;;;;;;;;;;;13.80;99.90;;;;;;5113375;28;19912;-68
2022/12/05 10:21:06;;;;;;;;;;;13.80;99.90;;;;;;5105792;28;19964;-69
2022/12/05 10:23:47;;;;;;;;;;;13.70;99.90;;;;;;5114586;28;19911;-68
2022/12/05 10:26:15;;;;;;;;;;;13.80;99.90;;;;;;5117596;28;19914;-68
2022/12/05 10:28:46;;;;;;;;;;;13.70;99.90;;;;;;5115770;28;21158;-68
2022/12/05 10:31:13;;;;;;;;;;;13.70;99.90;;;;;;5103716;28;19955;-68
2022/12/05 10:33:48;;;;;;;;;;;13.70;99.90;;;;;;5111380;27;20303;-67
2022/12/05 10:36:14;;;;;;;;;;;13.70;99.90;;;;;;5117392;28;19908;-68
2022/12/05 10:38:41;;;;;;;;;;;13.70;99.90;;;;;;5115569;28;19969;-68
2022/12/05 10:41:08;;;;;;;;;;;13.70;99.90;;;;;;5115430;28;19912;-68
2022/12/05 10:43:36;;;;;;;;;;;13.70;99.90;;;;;;5117124;28;19959;-68
2022/12/05 10:46:03;;;;;;;;;;;13.70;99.90;;;;;;5109879;28;20008;-67
2022/12/05 10:48:30;;;;;;;;;;;13.60;99.90;;;;;;5117144;28;19914;-70
2022/12/05 10:50:56;;;;;;;;;;;13.60;99.90;;;;;;5116785;28;20290;-68
2022/12/05 10:53:34;;;;;;;;;;;13.70;99.90;;;;;;5117645;27;19911;-67
2022/12/05 10:56:00;;;;;;;;;;;13.70;99.90;;;;;;5103787;28;19966;-68
2022/12/05 10:58:27;;;;;;;;;;;13.60;99.90;;;;;;5131546;27;19908;-68
2022/12/05 11:00:56;;;;;;;;;;;13.60;99.90;;;;;;5117340;28;19907;-68
2022/12/05 11:03:27;;;;;;;;;;;13.60;99.90;;;;;;5111899;28;20287;-68
2022/12/05 11:05:54;;;;;;;;;;;13.60;99.90;;;;;;5115090;27;19962;-68
2022/12/05 11:08:21;;;;;;;;;;;13.60;99.90;;;;;;5114654;28;20404;-69
2022/12/05 11:10:47;;;;;;;;;;;13.70;99.90;;;;;;5116140;28;19916;-68
2022/12/05 11:13:14;;;;;;;;;;;13.80;99.90;;;;;;5116924;28;19908;-68
2022/12/05 11:15:43;;;;;;;;;;;13.80;99.90;;;;;;5116028;28;20268;-68
2022/12/05 11:18:27;;;;;;;;;;;13.70;99.90;;;;;;5113216;28;19914;-68
2022/12/05 11:20:52;;;;;;;;;;;13.80;99.90;;;;;;5106659;27;20008;-68
2022/12/05 11:23:28;;;;;;;;;;;13.90;99.90;;;;;;5118212;27;20432;-68
2022/12/05 11:25:55;;;;;;;;;;;13.90;99.90;;;;;;5109354;27;19971;-68
2022/12/05 11:28:22;;;;;;;;;;;14.00;99.90;;;;;;5115119;28;19958;-69
2022/12/05 11:31:07;;;;;;;;;;;14.00;99.90;;;;;;5117294;28;20011;-69
2022/12/05 11:33:34;;;;;;;;;;;14.00;99.90;;;;;;5117296;28;19908;-69
2022/12/05 11:36:16;;;;;;;;;;;14.10;99.90;;;;;;5108840;27;19954;-68
2022/12/05 11:38:42;;;;;;;;;;;14.10;99.90;;;;;;5111901;28;19907;-68
2022/12/05 11:41:17;;;;;;;;;;;14.10;99.90;;;;;;5119253;28;19999;-68
2022/12/05 11:43:52;;;;;;;;;;;14.20;99.90;;;;;;5114943;28;19924;-68
2022/12/05 11:46:26;;;;;;;;;;;14.20;99.90;;;;;;5116312;28;19923;-69
2022/12/05 11:49:11;;;;;;;;;;;14.20;99.90;;;;;;5116442;28;19911;-68
2022/12/05 11:51:39;;;;;;;;;;;14.30;99.90;;;;;;5115450;27;20398;-68
2022/12/05 11:54:19;;;;;;;;;;;14.30;99.90;;;;;;5111008;28;19912;-68
2022/12/05 11:57:05;;;;;;;;;;;14.30;99.90;;;;;;5105387;27;19908;-67
2022/12/05 11:59:37;;;;;;;;;;;14.30;99.90;;;;;;5116020;27;20359;-68
2022/12/05 12:02:03;;;;;;;;;;;14.30;99.90;;;;;;5115657;28;19912;-68
2022/12/05 12:04:29;;;;;;;;;;;14.40;99.90;;;;;;5119500;27;19918;-68
2022/12/05 12:06:57;;;;;;;;;;;14.40;99.90;;;;;;5119775;28;19990;-68
2022/12/05 12:09:56;;;;;;;;;;;14.40;99.90;;;;;;5120053;28;19980;-67
2022/12/05 12:12:40;;;;;;;;;;;14.40;99.90;;;;;;5063984;28;19908;-67
2022/12/05 12:15:24;;;;;;;;;;;14.30;99.90;;;;;;5109401;27;19959;-67
2022/12/05 12:18:16;;;;;;;;;;;14.30;99.90;;;;;;5116562;27;19946;-67
2022/12/05 12:20:45;;;;;;;;;;;14.30;99.90;;;;;;5112264;28;19930;-67
2022/12/05 12:23:10;;;;;;;;;;;14.30;99.90;;;;;;5115042;28;19908;-67
2022/12/05 12:25:39;;;;;;;;;;;14.40;99.90;;;;;;5108482;28;19920;-67
2022/12/05 12:28:05;;;;;;;;;;;14.40;99.90;;;;;;5121383;27;20407;-68
2022/12/05 12:30:30;;;;;;;;;;;14.40;99.90;;;;;;5114778;28;19986;-70
2022/12/05 12:33:02;;;;;;;;;;;14.30;99.90;;;;;;5115788;28;19908;-66
2022/12/05 12:35:40;;;;;;;;;;;14.30;99.90;;;;;;5113676;27;20440;-69
2022/12/05 12:38:06;;;;;;;;;;;14.40;99.90;;;;;;5120694;27;19912;-66
2022/12/05 12:40:38;;;;;;;;;;;14.40;99.90;;;;;;5094207;28;19908;-66
2022/12/05 12:43:03;;;;;;;;;;;14.40;99.90;;;;;;5113484;28;20397;-67
2022/12/05 12:45:48;;;;;;;;;;;14.30;99.90;;;;;;5115028;27;19994;-65
2022/12/05 12:48:22;;;;;;;;;;;14.40;99.90;;;;;;5115121;28;19915;-65
2022/12/05 12:50:51;;;;;;;;;;;14.30;99.90;;;;;;5107642;28;19916;-67
2022/12/05 12:53:35;;;;;;;;;;;14.30;99.90;;;;;;5115811;28;19907;-65
2022/12/05 12:56:01;;;;;;;;;;;14.40;99.90;;;;;;5129798;27;19985;-65
2022/12/05 12:58:39;;;;;;;;;;;14.30;99.90;;;;;;5111832;28;19912;-65
2022/12/05 13:01:16;;;;;;;;;;;14.30;99.90;;;;;;5096385;28;19943;-65
2022/12/05 13:03:50;;;;;;;;;;;14.20;99.90;;;;;;5116608;27;20383;-65
2022/12/05 13:06:20;;;;;;;;;;;14.20;99.90;;;;;;5111146;28;19916;-64
2022/12/05 13:08:45;;;;;;;;;;;14.20;99.90;;;;;;5114467;28;19939;-68
2022/12/05 13:11:13;;;;;;;;;;;14.20;99.90;;;;;;5113120;28;19962;-65
2022/12/05 13:13:47;;;;;;;;;;;14.10;99.90;;;;;;5112774;28;20421;-66
2022/12/05 13:16:18;;;;;;;;;;;14.10;99.90;;;;;;5112078;27;19938;-65
2022/12/05 13:18:46;;;;;;;;;;;14.00;99.90;;;;;;5106059;28;20446;-66
2022/12/05 13:21:11;;;;;;;;;;;14.00;99.90;;;;;;5107371;27;19998;-64
2022/12/05 13:23:45;;;;;;;;;;;14.00;99.90;;;;;;5111822;27;19973;-65
2022/12/05 13:26:11;;;;;;;;;;;13.90;99.90;;;;;;5105923;28;20459;-63
2022/12/05 13:28:48;;;;;;;;;;;13.90;99.90;;;;;;5109752;28;19947;-65
2022/12/05 13:31:16;;;;;;;;;;;13.90;99.90;;;;;;5112444;28;19915;-67
2022/12/05 13:33:43;;;;;;;;;;;13.90;99.90;;;;;;5106808;28;20349;-65
2022/12/05 13:44:35;;;;;;;;;;;13.90;99.90;;;;;;5110477;28;19966;-66
2022/12/05 13:47:06;;;;;;;;;;;14.00;99.90;;;;;;5090916;28;20351;-69
2022/12/05 13:49:35;;;;;;;;;;;14.10;99.90;;;;;;5104395;28;19920;-68
2022/12/05 13:52:06;;;;;;;;;;;14.10;99.90;;;;;;5103519;28;20393;-69
2022/12/05 13:54:33;;;;;;;;;;;14.20;99.90;;;;;;5110850;28;19912;-68
2022/12/05 13:57:00;;;;;;;;;;;14.30;99.90;;;;;;5113744;28;20433;-70
2022/12/05 13:59:45;;;;;;;;;;;14.30;99.90;;;;;;5114960;28;20302;-66
2022/12/05 14:02:29;;;;;;;;;;;14.30;99.90;;;;;;5108062;28;20405;-66
2022/12/05 14:04:55;;;;;;;;;;;14.30;99.90;;;;;;5114087;28;20367;-67
2022/12/05 14:07:38;;;;;;;;;;;14.30;99.90;;;;;;5114747;28;19999;-66
2022/12/05 14:10:05;;;;;;;;;;;14.30;99.90;;;;;;5113560;28;20018;-68
2022/12/05 14:12:44;;;;;;;;;;;14.40;99.90;;;;;;5105062;28;20331;-67
2022/12/05 14:15:29;;;;;;;;;;;14.50;99.90;;;;;;5114177;28;19947;-69
2022/12/05 14:18:13;;;;;;;;;;;14.50;99.90;;;;;;5112429;28;19916;-69
2022/12/05 14:20:42;;;;;;;;;;;14.40;99.90;;;;;;5106581;28;20279;-69
2022/12/05 14:23:08;;;;;;;;;;;14.50;99.90;;;;;;5111960;28;20379;-69
2022/12/05 14:25:33;;;;;;;;;;;14.50;99.90;;;;;;5100627;28;19912;-69
2022/12/05 14:28:28;;;;;;;;;;;14.50;99.90;;;;;;5113444;28;19916;-69
2022/12/05 14:30:54;;;;;;;;;;;14.60;99.90;;;;;;5095676;28;20433;-69
2022/12/05 14:33:21;;;;;;;;;;;14.60;99.90;;;;;;5111636;28;19916;-69
2022/12/05 14:35:49;;;;;;;;;;;14.50;99.90;;;;;;5085105;28;20386;-70
2022/12/05 14:38:26;;;;;;;;;;;14.50;99.90;;;;;;5112872;28;19912;-69
2022/12/05 14:40:52;;;;;;;;;;;14.50;99.90;;;;;;5095662;28;19936;-69
2022/12/05 14:43:26;;;;;;;;;;;14.50;99.90;;;;;;5108970;28;19911;-70